Time;durP1;ratioP1;P1;durP2;ratioP2;P2;SDS_P1;SDS_P2;PMS_P1;PMS_P2;Temp;Humidity;BMP_temperature;BMP_pressure;BME280_temperature;BME280_humidity;BME280_pressure;Samples;Min_cycle;Max_cycle;Signal;HPM_P1;HPM_P2
2022/01/26 00:06:35;;;;;;;38.93;15.63;;;;;;;-1.96;45.42;100843.69;5004746;28;20025;-71
2022/01/26 00:09:01;;;;;;;38.37;15.10;;;;;;;-2.10;45.61;100847.66;4987116;28;20030;-71
2022/01/26 00:11:27;;;;;;;38.60;15.17;;;;;;;-1.93;45.36;100837.53;5004631;28;20072;-71
2022/01/26 00:13:54;;;;;;;38.17;16.60;;;;;;;-1.87;45.33;100839.06;5004516;28;20041;-71
2022/01/26 00:16:27;;;;;;;32.37;14.97;;;;;;;-1.74;44.71;100848.94;5004554;28;20138;-71
2022/01/26 00:18:58;;;;;;;36.58;15.25;;;;;;;-1.76;45.14;100839.50;4987100;28;20331;-71
2022/01/26 00:21:34;;;;;;;28.27;13.07;;;;;;;-1.95;45.40;100841.94;5004674;28;20054;-70
2022/01/26 00:29:33;;;;;;;36.03;14.67;;;;;;;-2.12;45.31;100845.09;5004502;28;20034;-71
2022/01/26 00:40:15;;;;;;;29.70;12.03;;;;;;;-2.15;45.66;100829.66;5004037;28;20041;-71
2022/01/26 00:42:42;;;;;;;27.57;11.87;;;;;;;-2.17;45.83;100825.41;5004164;28;20038;-70
2022/01/26 00:45:09;;;;;;;34.10;11.40;;;;;;;-2.25;45.95;100817.91;5003991;28;20030;-71
2022/01/26 00:47:34;;;;;;;27.53;11.80;;;;;;;-2.24;45.94;100817.00;4986250;28;20315;-71
2022/01/26 00:50:05;;;;;;;34.33;12.43;;;;;;;-2.25;45.90;100808.38;4983126;28;20058;-71
2022/01/26 00:52:42;;;;;;;28.63;11.57;;;;;;;-2.18;45.61;100800.38;4984421;28;20046;-70
2022/01/26 00:55:12;;;;;;;33.80;12.30;;;;;;;-2.08;45.23;100805.19;4984396;28;20272;-70
2022/01/26 00:57:38;;;;;;;26.00;11.30;;;;;;;-2.21;45.74;100797.88;4984290;28;20043;-71
2022/01/26 01:00:07;;;;;;;26.47;11.67;;;;;;;-2.35;45.55;100786.25;4984320;28;20209;-71
2022/01/26 01:02:33;;;;;;;29.07;11.77;;;;;;;-2.26;45.26;100787.69;4984326;28;20039;-70
2022/01/26 01:05:02;;;;;;;27.93;11.10;;;;;;;-2.38;45.63;100794.16;4984266;28;20033;-71
2022/01/26 01:07:33;;;;;;;29.57;11.23;;;;;;;-2.63;45.97;100760.47;4984153;28;20038;-70
2022/01/26 01:09:59;;;;;;;24.80;11.00;;;;;;;-2.42;45.64;100792.56;4984097;28;20030;-71
2022/01/26 01:12:24;;;;;;;30.20;11.47;;;;;;;-2.30;45.65;100780.91;4983931;28;20046;-71
2022/01/26 01:14:50;;;;;;;26.67;10.60;;;;;;;-2.33;45.24;100791.41;4983984;28;20034;-70
2022/01/26 01:17:23;;;;;;;23.43;10.40;;;;;;;-2.46;45.31;100790.13;4983888;28;20102;-70
2022/01/26 01:20:09;;;;;;;37.65;13.48;;;;;;;-2.46;45.16;100765.06;4984080;28;20045;-71
2022/01/26 01:22:54;;;;;;;30.70;11.60;;;;;;;-2.40;45.43;100774.38;4984017;28;20039;-70
2022/01/26 01:25:59;;;;;;;26.00;11.97;;;;;;;-2.22;45.68;100780.63;4983897;28;20220;-71
2022/01/26 01:30:41;;;;;;;26.67;13.17;;;;;;;-2.16;45.40;100776.06;4984086;28;20023;-71
2022/01/26 01:33:09;;;;;;;34.97;14.60;;;;;;;-2.14;45.47;100784.63;4983727;28;20049;-70
2022/01/26 01:35:38;;;;;;;30.83;14.87;;;;;;;-2.47;45.89;100783.25;4983816;28;20030;-71
2022/01/26 01:38:09;;;;;;;31.90;14.93;;;;;;;-2.61;46.88;100778.56;4983828;28;20074;-71
2022/01/26 01:40:38;;;;;;;28.03;10.97;;;;;;;-2.65;47.29;100776.97;4983733;28;20094;-70
2022/01/26 01:43:04;;;;;;;26.53;11.00;;;;;;;-2.53;46.66;100775.69;4998563;28;20269;-71
2022/01/26 01:45:38;;;;;;;28.97;11.20;;;;;;;-2.54;46.09;100776.59;4983385;28;20027;-71
2022/01/26 01:48:05;;;;;;;22.60;10.33;;;;;;;-2.43;46.24;100772.72;4998628;28;20109;-71
2022/01/26 01:50:35;;;;;;;24.80;10.17;;;;;;;-2.43;45.37;100772.72;4999959;28;20046;-70
2022/01/26 01:53:02;;;;;;;24.73;10.00;;;;;;;-2.57;45.88;100774.97;5003138;28;20030;-70
2022/01/26 01:55:29;;;;;;;23.93;10.03;;;;;;;-2.45;45.62;100771.09;5003039;28;20030;-71
2022/01/26 01:57:59;;;;;;;22.87;9.53;;;;;;;-2.36;45.33;100761.22;5002797;28;20105;-71
2022/01/26 02:00:27;;;;;;;24.73;9.90;;;;;;;-2.40;45.25;100758.81;5003012;28;20031;-70
2022/01/26 02:02:52;;;;;;;19.20;9.17;;;;;;;-2.19;44.63;100760.59;5002905;28;20034;-71
2022/01/26 02:05:19;;;;;;;17.90;8.77;;;;;;;-2.34;44.18;100753.38;5002935;28;20037;-71
2022/01/26 02:07:44;;;;;;;19.67;8.93;;;;;;;-2.29;44.65;100757.50;5002831;28;20031;-71
2022/01/26 02:10:10;;;;;;;21.60;9.00;;;;;;;-2.26;44.30;100749.63;5002725;28;20030;-70
2022/01/26 02:12:41;;;;;;;20.13;9.37;;;;;;;-2.20;43.91;100743.34;5002897;28;20037;-70
2022/01/26 02:15:17;;;;;;;18.93;8.13;;;;;;;-2.24;43.37;100746.97;4985539;28;20061;-71
2022/01/26 02:56:57;;;;;;;17.60;7.85;;;;;;;-2.03;42.63;100725.44;5003988;28;20049;-71
2022/01/26 03:04:28;;;;;;;16.17;7.93;;;;;;;-1.73;43.40;100710.41;5006232;28;20022;-71
2022/01/26 03:07:10;;;;;;;19.17;8.20;;;;;;;-1.85;43.55;100716.09;5005969;28;20042;-71
2022/01/26 03:09:43;;;;;;;19.37;8.43;;;;;;;-1.79;43.54;100705.47;5005753;28;20037;-70
2022/01/26 03:12:10;;;;;;;18.87;8.03;;;;;;;-1.68;43.57;100707.63;5006087;28;20053;-70
2022/01/26 03:18:12;;;;;;;21.50;8.13;;;;;;;-1.59;43.39;100709.84;5005615;28;20026;-71
2022/01/26 03:19:54;;;;;;;19.90;8.47;;;;;;;-1.84;43.75;100704.78;5001739;28;20344;-70
2022/01/26 03:36:10;;;;;;;19.20;8.03;;;;;;;-1.44;43.22;100691.06;5005472;28;20289;-71
2022/01/26 03:38:05;;;;;;;22.17;9.00;;;;;;;-1.35;43.07;100689.81;5004857;28;20042;-71
2022/01/26 03:40:33;;;;;;;17.40;7.93;;;;;;;-1.35;42.67;100692.41;5005290;28;20023;-71
2022/01/26 03:42:59;;;;;;;18.93;8.77;;;;;;;-1.36;42.89;100688.13;5005395;28;20081;-71
2022/01/26 03:45:26;;;;;;;19.40;8.10;;;;;;;-1.52;43.22;100685.31;5005100;28;20030;-71
2022/01/26 03:47:53;;;;;;;22.27;9.20;;;;;;;-1.35;43.18;100680.28;5005123;28;20080;-70
2022/01/26 03:50:18;;;;;;;17.70;8.80;;;;;;;-1.34;43.38;100671.56;5004866;28;20042;-71
2022/01/26 03:52:44;;;;;;;18.00;8.13;;;;;;;-1.43;43.52;100690.13;5004856;28;20037;-71
2022/01/26 03:55:09;;;;;;;20.03;8.87;;;;;;;-1.42;43.52;100685.78;5005077;28;20030;-71
2022/01/26 03:57:35;;;;;;;17.93;8.33;;;;;;;-1.22;42.95;100685.81;5004849;28;20088;-70
2022/01/26 04:00:00;;;;;;;19.50;8.80;;;;;;;-1.45;43.13;100691.97;5004853;28;20097;-70
2022/01/26 04:02:26;;;;;;;20.00;8.80;;;;;;;-1.43;42.95;100695.34;5004843;28;20034;-71
2022/01/26 04:04:57;;;;;;;19.00;9.00;;;;;;;-1.22;43.01;100692.75;5005111;28;20034;-71
2022/01/26 04:07:23;;;;;;;23.63;9.43;;;;;;;-1.18;43.28;100686.53;5004821;28;20061;-70
2022/01/26 04:09:48;;;;;;;21.73;9.27;;;;;;;-1.37;43.87;100686.44;5004636;28;20042;-70
2022/01/26 04:12:14;;;;;;;28.20;9.70;;;;;;;-1.15;43.48;100684.63;4987177;28;20045;-71
2022/01/26 04:14:42;;;;;;;22.30;8.90;;;;;;;-1.08;43.77;100693.00;4987303;28;20022;-71
2022/01/26 04:17:08;;;;;;;21.53;9.73;;;;;;;-1.06;43.64;100694.63;5004500;28;20065;-70
2022/01/26 04:19:36;;;;;;;21.33;9.47;;;;;;;-1.19;44.64;100684.81;5004495;28;20054;-71
2022/01/26 04:22:13;;;;;;;24.97;10.10;;;;;;;-1.24;44.63;100690.22;5004625;28;20030;-71
2022/01/26 04:24:44;;;;;;;29.60;12.23;;;;;;;-1.49;45.15;100686.94;5004567;28;20042;-71
2022/01/26 04:29:54;;;;;;;;;;;;;;;-1.59;46.22;100685.63;5004927;28;20048;-71
2022/01/26 04:32:20;;;;;;;32.97;17.57;;;;;;;-1.54;47.14;100683.69;5004378;28;19948;-71
2022/01/26 04:34:48;;;;;;;24.67;11.47;;;;;;;-1.65;47.53;100691.94;5004382;28;20359;-72
2022/01/26 04:39:58;;;;;;;26.37;10.40;;;;;;;-1.83;48.93;100682.28;5004087;28;20034;-71
2022/01/26 04:42:41;;;;;;;28.63;11.27;;;;;;;-1.74;49.29;100679.31;5004072;28;20123;-71
2022/01/26 04:45:10;;;;;;;39.72;15.25;;;;;;;-1.71;49.46;100669.66;5004081;28;20045;-71
2022/01/26 04:47:36;;;;;;;75.67;23.60;;;;;;;-1.43;49.62;100679.75;5004057;28;20042;-70
2022/01/26 04:50:03;;;;;;;140.07;34.20;;;;;;;-1.30;49.44;100673.13;5003802;28;20049;-71
2022/01/26 04:52:29;;;;;;;95.77;24.87;;;;;;;-1.55;50.27;100658.63;5003932;28;20038;-71
2022/01/26 04:54:54;;;;;;;90.37;29.87;;;;;;;-1.99;52.63;100675.09;5003858;28;20038;-71
2022/01/26 04:57:20;;;;;;;44.03;21.37;;;;;;;-2.22;53.71;100677.69;5003893;28;20034;-71
2022/01/26 04:59:45;;;;;;;67.63;29.73;;;;;;;-2.36;54.77;100680.81;5003877;28;20070;-71
2022/01/26 05:02:10;;;;;;;106.33;37.20;;;;;;;-2.23;53.78;100678.59;5003630;28;20053;-71
2022/01/26 05:04:36;;;;;;;56.40;23.77;;;;;;;-2.17;54.37;100680.13;5004262;28;20038;-71
2022/01/26 05:07:02;;;;;;;50.97;20.77;;;;;;;-1.87;52.82;100673.75;5003561;28;20089;-71
2022/01/26 05:09:27;;;;;;;54.07;20.40;;;;;;;-2.09;52.95;100676.31;5003468;28;20257;-71
2022/01/26 05:11:55;;;;;;;84.93;25.90;;;;;;;-2.29;54.16;100679.69;5003427;28;20045;-71
2022/01/26 05:14:20;;;;;;;67.93;25.17;;;;;;;-2.55;55.09;100689.34;5003536;28;20268;-71
2022/01/26 05:16:46;;;;;;;50.20;20.63;;;;;;;-2.48;54.85;100686.47;5003280;28;20026;-70
2022/01/26 05:19:12;;;;;;;48.03;19.70;;;;;;;-2.35;54.18;100679.06;5003064;28;20080;-71
2022/01/26 05:21:38;;;;;;;97.53;27.70;;;;;;;-2.38;54.58;100684.38;5003193;28;20022;-71
2022/01/26 05:24:04;;;;;;;55.47;21.90;;;;;;;-2.62;56.08;100683.53;5003384;28;20045;-71
2022/01/26 05:26:29;;;;;;;131.90;34.77;;;;;;;-2.41;54.83;100687.94;5003264;28;20028;-71
2022/01/26 05:28:55;;;;;;;91.50;31.00;;;;;;;-2.52;54.64;100677.09;5003184;28;20154;-71
2022/01/26 05:31:21;;;;;;;148.30;41.33;;;;;;;-2.55;55.42;100687.59;5003326;28;20224;-71
2022/01/26 05:33:47;;;;;;;131.40;44.13;;;;;;;-2.43;55.21;100676.75;5003206;28;20031;-70
2022/01/26 05:36:13;;;;;;;115.10;35.07;;;;;;;-2.45;54.34;100685.50;5003113;28;20324;-71
2022/01/26 05:38:39;;;;;;;97.50;31.97;;;;;;;-2.61;55.60;100682.63;5003352;28;20031;-71
2022/01/26 05:41:04;;;;;;;62.57;23.47;;;;;;;-2.18;54.26;100683.63;5001998;28;20339;-71
2022/01/26 05:43:33;;;;;;;45.53;17.90;;;;;;;-2.15;53.79;100676.56;5003171;28;20127;-70
2022/01/26 05:46:05;;;;;;;39.53;17.33;;;;;;;-2.45;54.06;100638.81;5003382;28;20034;-71
2022/01/26 05:48:30;;;;;;;44.80;17.20;;;;;;;-2.03;53.46;100670.09;5002669;28;20280;-71
2022/01/26 05:51:04;;;;;;;43.53;15.03;;;;;;;-1.79;52.81;100676.06;5003385;28;20038;-71
2022/01/26 05:53:31;;;;;;;34.23;13.97;;;;;;;-1.61;51.37;100683.09;5003191;28;20018;-71
2022/01/26 05:55:58;;;;;;;37.47;14.20;;;;;;;-1.66;50.75;100672.91;5003126;28;20065;-71
2022/01/26 05:58:24;;;;;;;36.73;12.83;;;;;;;-1.51;50.69;100681.81;4985625;28;20041;-71
2022/01/26 06:00:50;;;;;;;33.57;13.30;;;;;;;-1.53;50.17;100681.03;5002912;28;20050;-71
2022/01/26 06:03:15;;;;;;;37.47;14.77;;;;;;;-1.62;50.38;100684.00;5003189;28;20313;-71
2022/01/26 06:05:41;;;;;;;49.43;16.20;;;;;;;-1.50;49.87;100677.47;5002850;28;20046;-70
2022/01/26 06:08:06;;;;;;;56.67;15.80;;;;;;;-1.32;49.78;100685.34;5002793;28;20035;-71
2022/01/26 06:10:33;;;;;;;41.20;15.37;;;;;;;-1.39;49.00;100685.66;5002825;28;20236;-71
2022/01/26 06:12:58;;;;;;;34.83;15.07;;;;;;;-1.45;49.49;100681.56;5002568;28;20058;-71
2022/01/26 06:15:24;;;;;;;42.10;15.47;;;;;;;-1.06;48.70;100702.44;5002856;28;20029;-70
2022/01/26 06:17:49;;;;;;;33.47;13.70;;;;;;;-1.13;48.73;100697.56;5002554;28;20031;-71
2022/01/26 06:20:15;;;;;;;29.80;13.53;;;;;;;-1.37;49.26;100695.09;5002678;28;20045;-71
2022/01/26 06:22:40;;;;;;;35.63;14.27;;;;;;;-1.23;49.09;100685.88;5002557;28;20034;-71
2022/01/26 06:25:07;;;;;;;45.33;15.40;;;;;;;-1.07;48.79;100689.50;5002656;28;20041;-71
2022/01/26 06:27:35;;;;;;;33.50;15.03;;;;;;;-1.03;48.83;100685.91;5002766;28;20037;-71
2022/01/26 06:30:05;;;;;;;35.37;13.87;;;;;;;-1.10;49.08;100694.84;5002734;28;20038;-71
2022/01/26 06:32:31;;;;;;;37.50;14.87;;;;;;;-1.16;49.59;100690.75;5005941;28;20042;-71
2022/01/26 06:34:58;;;;;;;34.20;14.30;;;;;;;-0.78;48.99;100688.28;5006462;28;20049;-71
2022/01/26 06:37:23;;;;;;;36.07;15.10;;;;;;;-0.59;48.36;100690.91;5006298;28;20141;-71
2022/01/26 06:39:49;;;;;;;35.67;14.00;;;;;;;-0.50;47.70;100678.34;4989008;28;20034;-71
2022/01/26 06:42:18;;;;;;;35.83;14.83;;;;;;;-0.63;48.11;100681.56;5006096;28;20038;-72
2022/01/26 06:45:29;;;;;;;34.70;13.87;;;;;;;-0.45;47.37;100684.16;5006301;28;20359;-71
2022/01/26 06:50:02;;;;;;;29.83;12.03;;;;;;;-0.11;45.56;100685.22;5006128;28;20266;-71
2022/01/26 06:52:28;;;;;;;32.43;12.03;;;;;;;-0.04;45.50;100702.25;5005043;28;20264;-71
2022/01/26 06:54:53;;;;;;;25.70;11.37;;;;;;;0.24;44.14;100696.59;5006078;28;20101;-71
2022/01/26 06:57:19;;;;;;;25.17;11.10;;;;;;;0.17;44.20;100700.41;5006190;28;20042;-70
2022/01/26 06:59:45;;;;;;;32.40;11.63;;;;;;;0.05;43.92;100699.25;4988695;28;20045;-71
2022/01/26 07:02:11;;;;;;;26.40;11.43;;;;;;;-0.06;43.90;100694.50;5005868;28;20042;-71
2022/01/26 07:04:36;;;;;;;34.83;13.40;;;;;;;0.12;43.70;100692.81;5005986;28;20101;-71
2022/01/26 07:07:02;;;;;;;33.67;12.07;;;;;;;0.11;43.32;100692.91;5005945;28;20077;-70
2022/01/26 07:09:27;;;;;;;33.43;12.93;;;;;;;-0.02;43.61;100690.84;5006006;28;20254;-71
2022/01/26 07:11:52;;;;;;;37.03;15.47;;;;;;;0.23;43.45;100698.38;5005671;28;20335;-71
2022/01/26 07:19:52;;;;;;;31.43;12.40;;;;;;;0.19;43.36;100698.59;5005876;28;20093;-71
2022/01/26 07:20:42;;;;;;;33.47;13.32;;;;;;;0.13;43.47;100697.13;5005696;28;20072;-71
2022/01/26 07:22:42;;;;;;;30.77;12.83;;;;;;;0.27;42.81;100679.06;5005487;28;20055;-71
2022/01/26 07:25:07;;;;;;;30.73;15.03;;;;;;;0.27;43.10;100681.69;5005563;28;20049;-71
2022/01/26 07:27:33;;;;;;;32.03;12.57;;;;;;;0.34;43.21;100684.00;5005645;28;20038;-71
2022/01/26 07:29:59;;;;;;;30.40;13.60;;;;;;;0.33;43.30;100688.34;5005500;28;20045;-71
2022/01/26 07:32:27;;;;;;;38.87;13.50;;;;;;;0.15;44.41;100692.69;5005504;28;20022;-72
2022/01/26 07:34:52;;;;;;;39.43;13.73;;;;;;;0.20;44.15;100695.91;5005437;28;20034;-71
2022/01/26 07:37:20;;;;;;;32.80;13.17;;;;;;;0.18;44.57;100694.31;5005460;28;20142;-71
2022/01/26 07:40:00;;;;;;;30.47;13.17;;;;;;;0.22;44.23;100699.28;4987752;28;20041;-71
2022/01/26 07:42:25;;;;;;;40.60;14.10;;;;;;;0.38;43.69;100699.41;5004661;28;20038;-71
2022/01/26 07:44:51;;;;;;;34.63;15.03;;;;;;;0.14;44.24;100696.22;5005133;28;20018;-71
2022/01/26 07:47:16;;;;;;;42.80;14.50;;;;;;;0.15;44.28;100697.88;5004967;28;20042;-71
2022/01/26 07:49:42;;;;;;;32.43;14.13;;;;;;;0.19;44.18;100701.19;5006451;28;20045;-72
2022/01/26 07:52:07;;;;;;;42.37;13.67;;;;;;;0.19;44.08;100707.25;5023708;28;20042;-72
2022/01/26 07:54:33;;;;;;;33.40;14.97;;;;;;;0.32;44.07;100697.94;5023873;28;20026;-71
2022/01/26 07:56:58;;;;;;;25.17;12.33;;;;;;;0.45;44.26;100695.56;5023711;28;20038;-71
2022/01/26 07:59:23;;;;;;;32.60;13.47;;;;;;;0.57;43.47;100699.34;5023561;28;20101;-72
2022/01/26 08:01:49;;;;;;;30.23;13.50;;;;;;;0.52;43.71;100701.31;5023459;28;20045;-72
2022/01/26 08:04:14;;;;;;;34.73;13.83;;;;;;;0.56;43.95;100700.25;5023583;28;20291;-71
2022/01/26 08:06:40;;;;;;;27.27;12.67;;;;;;;0.71;43.27;100701.25;5023265;28;20089;-71
2022/01/26 08:09:06;;;;;;;37.80;13.73;;;;;;;0.55;43.27;100683.78;5023335;28;20037;-71
2022/01/26 08:11:31;;;;;;;39.07;14.17;;;;;;;0.56;43.34;100689.84;5023178;28;20041;-71
2022/01/26 08:13:58;;;;;;;44.77;15.63;;;;;;;0.69;43.41;100679.66;5023336;28;20030;-71
2022/01/26 08:16:23;;;;;;;44.17;15.23;;;;;;;0.72;43.10;100674.28;5023167;28;20057;-71
2022/01/26 08:18:49;;;;;;;32.70;12.93;;;;;;;0.60;43.42;100676.56;5023144;28;20863;-71
2022/01/26 08:21:15;;;;;;;33.03;13.27;;;;;;;0.72;44.00;100676.88;5023087;28;20064;-72
2022/01/26 08:23:43;;;;;;;28.73;13.17;;;;;;;0.77;43.79;100677.50;5023334;28;20030;-71
2022/01/26 08:26:09;;;;;;;28.73;11.80;;;;;;;0.75;43.81;100680.19;5023240;28;20025;-70
2022/01/26 08:28:41;;;;;;;31.43;13.03;;;;;;;0.74;43.94;100673.28;5023155;28;20331;-71
2022/01/26 08:31:07;;;;;;;44.73;16.80;;;;;;;0.84;44.37;100678.88;5023070;28;20033;-71
2022/01/26 08:33:32;;;;;;;40.77;15.03;;;;;;;0.89;44.28;100672.50;5022871;28;20137;-71
2022/01/26 08:35:58;;;;;;;30.63;12.40;;;;;;;0.79;44.20;100673.88;5022867;28;20037;-72
2022/01/26 08:38:24;;;;;;;38.23;14.73;;;;;;;0.85;44.09;100676.19;5022971;28;20097;-71
2022/01/26 08:40:50;;;;;;;34.73;12.70;;;;;;;0.96;43.90;100684.31;5005348;28;20034;-71
2022/01/26 08:43:16;;;;;;;35.53;13.90;;;;;;;0.87;44.46;100681.31;5022809;28;20041;-71
2022/01/26 08:45:42;;;;;;;50.87;16.43;;;;;;;1.06;44.66;100683.88;5022663;28;20334;-71
2022/01/26 08:48:08;;;;;;;45.70;15.10;;;;;;;1.03;44.79;100666.59;5022512;28;20065;-71
2022/01/26 08:50:34;;;;;;;29.60;12.57;;;;;;;0.91;44.57;100668.06;5022430;28;20153;-71
2022/01/26 08:53:00;;;;;;;29.63;11.77;;;;;;;0.95;45.21;100677.41;5022136;28;20274;-71
2022/01/26 08:55:25;;;;;;;29.93;11.87;;;;;;;1.09;44.93;100674.13;5022137;28;20056;-71
2022/01/26 08:57:51;;;;;;;36.00;14.10;;;;;;;1.14;44.84;100679.94;5022662;28;20038;-71
2022/01/26 09:00:17;;;;;;;36.63;13.63;;;;;;;1.21;45.61;100672.63;5022555;28;20044;-71
2022/01/26 09:02:43;;;;;;;34.83;14.47;;;;;;;1.16;45.50;100672.88;5022562;28;20099;-71
2022/01/26 09:05:09;;;;;;;34.40;13.97;;;;;;;1.10;45.51;100648.88;5022428;28;20060;-71
2022/01/26 09:07:36;;;;;;;34.30;14.63;;;;;;;1.29;45.17;100683.53;5004644;28;20052;-71
2022/01/26 09:10:03;;;;;;;32.00;11.83;;;;;;;1.31;45.67;100684.28;5004616;28;20243;-71
2022/01/26 09:12:31;;;;;;;30.60;11.53;;;;;;;1.26;45.24;100681.06;5022421;28;20045;-72
2022/01/26 09:15:00;;;;;;;39.43;11.77;;;;;;;1.29;45.71;100688.72;5022087;28;20034;-71
2022/01/26 09:17:27;;;;;;;32.27;13.03;;;;;;;1.14;45.80;100682.56;5022051;28;20037;-71
2022/01/26 09:19:56;;;;;;;37.90;13.77;;;;;;;1.34;45.86;100688.50;5022097;28;20205;-72
2022/01/26 09:22:21;;;;;;;33.13;14.73;;;;;;;1.37;46.34;100677.91;5022078;28;20064;-72
2022/01/26 09:24:46;;;;;;;31.00;13.10;;;;;;;1.49;46.05;100675.47;5022310;28;20037;-71
2022/01/26 09:27:16;;;;;;;35.37;14.27;;;;;;;1.37;46.13;100654.41;5022066;28;20037;-71
2022/01/26 09:29:43;;;;;;;35.77;12.93;;;;;;;1.63;46.14;100684.34;5022052;28;20030;-72
2022/01/26 09:32:09;;;;;;;37.40;14.87;;;;;;;1.60;46.40;100636.59;5022028;28;20042;-71
2022/01/26 09:34:35;;;;;;;31.70;13.63;;;;;;;1.73;46.27;100670.72;5021841;28;20042;-71
2022/01/26 09:37:05;;;;;;;32.63;14.07;;;;;;;1.57;47.21;100683.75;5021811;28;20342;-71
2022/01/26 09:39:30;;;;;;;46.10;15.50;;;;;;;1.89;46.70;100674.16;5021787;28;20084;-72
2022/01/26 09:41:57;;;;;;;35.97;15.27;;;;;;;1.92;45.61;100665.31;5021945;28;20045;-72
2022/01/26 09:44:23;;;;;;;26.37;11.63;;;;;;;1.80;45.54;100664.22;5021855;28;20320;-71
2022/01/26 09:46:49;;;;;;;27.57;11.87;;;;;;;1.72;46.06;100660.34;5021555;28;20045;-71
2022/01/26 09:49:16;;;;;;;28.53;12.03;;;;;;;1.60;45.78;100640.97;5021444;28;20042;-72
2022/01/26 09:51:44;;;;;;;41.03;11.97;;;;;;;1.70;46.17;100651.75;5021686;28;20036;-71
2022/01/26 09:54:16;;;;;;;31.00;11.27;;;;;;;1.64;45.84;100642.50;5021656;28;20037;-71
2022/01/26 09:56:44;;;;;;;28.77;11.73;;;;;;;1.65;46.34;100652.00;5021658;28;20037;-71
2022/01/26 09:59:10;;;;;;;32.27;11.43;;;;;;;1.74;46.10;100645.44;5021710;28;20271;-72
2022/01/26 10:01:42;;;;;;;27.20;11.43;;;;;;;1.75;46.19;100649.72;5021474;28;20032;-71
2022/01/26 10:04:29;;;;;;;30.60;11.20;;;;;;;1.70;46.49;100615.19;5021683;28;20081;-71
2022/01/26 10:10:02;;;;;;;39.27;13.13;;;;;;;1.81;46.33;100605.84;5025565;28;20096;-71
2022/01/26 10:15:33;;;;;;;30.07;12.27;;;;;;;2.01;45.99;100630.00;5025676;28;20032;-71
2022/01/26 10:18:12;;;;;;;34.57;12.00;;;;;;;1.89;46.91;100639.38;5025728;28;20346;-72
2022/01/26 10:20:49;;;;;;;28.50;11.73;;;;;;;1.90;47.09;100628.84;5025402;28;20034;-72
2022/01/26 10:23:18;;;;;;;31.83;12.80;;;;;;;1.73;47.78;100615.03;5025227;28;20040;-70
2022/01/26 10:26:02;;;;;;;34.17;12.50;;;;;;;1.82;47.96;100624.97;5025366;28;20038;-70
2022/01/26 10:28:40;;;;;;;37.15;13.65;;;;;;;1.96;47.78;100600.69;5007687;28;20033;-71
2022/01/26 10:31:16;;;;;;;28.63;12.90;;;;;;;2.18;47.26;100606.41;5025454;28;20438;-72
2022/01/26 10:33:57;;;;;;;29.13;12.90;;;;;;;2.24;46.93;100604.28;5025290;28;20033;-71
2022/01/26 10:36:23;;;;;;;36.93;14.13;;;;;;;2.47;46.58;100607.34;5007736;28;20093;-71
2022/01/26 10:38:58;;;;;;;35.03;13.97;;;;;;;2.43;46.89;100609.28;5025019;28;20045;-71
2022/01/26 10:41:24;;;;;;;37.63;13.80;;;;;;;2.67;46.66;100601.78;5024988;28;20076;-72
2022/01/26 10:43:51;;;;;;;29.13;12.90;;;;;;;2.73;46.78;100604.03;5025414;28;20088;-71
2022/01/26 10:46:45;;;;;;;37.40;14.27;;;;;;;2.77;47.38;100595.06;5024943;28;20050;-72
2022/01/26 10:49:18;;;;;;;38.10;14.27;;;;;;;2.66;47.77;100591.41;5007809;28;20045;-72
2022/01/26 10:57:03;;;;;;;36.23;14.33;;;;;;;2.53;47.53;100539.84;5024940;28;20040;-71
2022/01/26 10:59:28;;;;;;;35.87;13.07;;;;;;;2.66;47.65;100571.34;5024794;28;20341;-71
2022/01/26 11:01:59;;;;;;;33.53;14.00;;;;;;;2.70;48.25;100574.59;5024757;28;20177;-72
2022/01/26 11:04:25;;;;;;;33.60;13.67;;;;;;;2.76;48.02;100558.56;5024061;28;20048;-72
2022/01/26 11:06:53;;;;;;;36.33;13.60;;;;;;;2.76;48.16;100542.84;5024463;28;20042;-71
2022/01/26 11:09:23;;;;;;;30.17;13.50;;;;;;;2.83;48.06;100545.00;5023253;28;20079;-71
2022/01/26 11:12:04;;;;;;;31.93;13.33;;;;;;;2.81;48.50;100522.50;5006890;28;20274;-72
2022/01/26 11:14:46;;;;;;;32.33;14.50;;;;;;;3.10;48.13;100552.09;5023865;28;20332;-71
2022/01/26 11:17:27;;;;;;;36.00;13.10;;;;;;;3.14;48.49;100548.38;5023453;28;20571;-71
2022/01/26 11:19:56;;;;;;;35.57;13.77;;;;;;;3.44;47.77;100549.06;5024562;28;20250;-72
2022/01/26 11:22:27;;;;;;;26.60;12.17;;;;;;;3.41;48.19;100538.81;5024369;28;20030;-72
2022/01/26 11:24:53;;;;;;;34.27;15.07;;;;;;;3.35;49.07;100546.22;5024379;28;20053;-71
2022/01/26 11:27:19;;;;;;;36.50;15.47;;;;;;;3.48;48.63;100541.88;5006729;28;20037;-71
2022/01/26 11:29:49;;;;;;;34.43;15.03;;;;;;;3.50;48.69;100540.84;5024080;28;20040;-72
2022/01/26 11:32:22;;;;;;;34.40;16.50;;;;;;;3.79;48.57;100538.13;5024029;28;20253;-72
2022/01/26 11:34:55;;;;;;;43.67;15.38;;;;;;;3.64;48.46;100529.47;5024497;28;20026;-71
2022/01/26 11:37:58;;;;;;;39.90;15.10;;;;;;;3.53;49.01;100532.78;5024243;28;20041;-71
2022/01/26 11:46:06;;;;;;;;;;;;;;;3.72;49.00;100526.38;5024508;28;20081;-72
2022/01/26 11:48:31;;;;;;;30.80;14.23;;;;;;;3.63;49.61;100529.56;5023854;28;20029;-71
2022/01/26 11:51:02;;;;;;;30.70;11.30;;;;;;;3.66;50.36;100517.13;5023856;28;20034;-72
2022/01/26 11:53:29;;;;;;;20.40;9.33;;;;;;;3.84;50.56;100505.44;5023894;28;20316;-72
2022/01/26 11:56:05;;;;;;;21.07;9.20;;;;;;;4.10;50.01;100505.50;5023842;28;20033;-72
2022/01/26 11:58:41;;;;;;;17.93;7.90;;;;;;;4.12;48.99;100503.63;5023636;28;20034;-71
2022/01/26 12:03:44;;;;;;;26.23;10.57;;;;;;;4.16;49.90;100500.72;5023794;28;20036;-71
2022/01/26 12:06:20;;;;;;;16.83;7.40;;;;;;;4.15;49.41;100492.94;5023661;28;20052;-71
2022/01/26 12:08:46;;;;;;;19.67;7.90;;;;;;;4.14;48.69;100492.09;5023285;28;20391;-71
2022/01/26 12:11:15;;;;;;;17.90;7.10;;;;;;;4.02;49.12;100502.56;5023394;28;20021;-71
2022/01/26 12:13:44;;;;;;;18.93;8.10;;;;;;;3.97;49.15;100489.75;5023229;28;20219;-72
2022/01/26 12:16:15;;;;;;;26.57;9.53;;;;;;;3.95;49.73;100493.41;5023343;28;20336;-72
2022/01/26 12:19:22;;;;;;;20.93;8.53;;;;;;;3.95;49.93;100490.81;5023481;28;20052;-71
2022/01/26 12:35:20;;;;;;;18.38;8.30;;;;;;;4.16;49.56;100495.47;5022985;28;20057;-71
2022/01/26 12:37:57;;;;;;;26.73;8.93;;;;;;;4.16;49.96;100494.59;5022651;28;20038;-72
2022/01/26 12:43:12;;;;;;;18.93;8.33;;;;;;;4.15;50.14;100491.16;5022935;28;20053;-71
2022/01/26 12:45:37;;;;;;;17.10;7.63;;;;;;;4.09;50.24;100493.34;5022752;28;20029;-72
2022/01/26 12:48:08;;;;;;;20.60;8.70;;;;;;;4.08;50.14;100487.25;5022590;28;20030;-72
2022/01/26 12:50:34;;;;;;;16.37;7.73;;;;;;;4.13;50.44;100495.66;5022556;28;20046;-72
2022/01/26 12:52:59;;;;;;;17.03;7.70;;;;;;;4.35;50.00;100489.00;5022450;28;20070;-71
2022/01/26 12:55:34;;;;;;;14.87;7.20;;;;;;;4.12;50.30;100491.34;5005023;28;20096;-72
2022/01/26 12:58:01;;;;;;;17.17;7.57;;;;;;;4.23;49.99;100500.31;5022231;28;20030;-72
2022/01/26 13:00:37;;;;;;;19.70;7.70;;;;;;;4.14;50.08;100484.22;5005055;28;20030;-72
2022/01/26 13:03:09;;;;;;;13.90;7.40;;;;;;;4.19;50.36;100490.97;5022299;28;20083;-71
2022/01/26 13:05:35;;;;;;;19.05;8.35;;;;;;;4.38;50.15;100483.53;5022558;28;20034;-71
2022/01/26 13:08:02;;;;;;;17.17;7.70;;;;;;;4.45;49.82;100480.41;5022257;28;20191;-72
2022/01/26 13:10:30;;;;;;;16.83;7.33;;;;;;;4.33;49.87;100494.34;5022415;28;20114;-72
2022/01/26 13:13:17;;;;;;;17.07;8.00;;;;;;;4.35;49.63;100483.75;5022136;28;20033;-71
2022/01/26 13:15:52;;;;;;;19.30;9.20;;;;;;;4.47;49.64;100485.53;5022289;28;20033;-71
2022/01/26 13:18:46;;;;;;;14.33;7.20;;;;;;;4.53;49.58;100492.13;5022514;28;20061;-72
2022/01/26 13:21:46;;;;;;;25.50;8.23;;;;;;;4.51;48.96;100480.91;5022044;28;20025;-72
2022/01/26 13:24:58;;;;;;;18.93;7.63;;;;;;;4.55;48.88;100495.50;5022039;28;20045;-72
2022/01/26 13:30:34;;;;;;;20.02;9.50;;;;;;;4.59;49.22;100492.56;5021818;28;20022;-71
2022/01/26 13:49:30;;;;;;;19.33;8.67;;;;;;;4.44;49.54;100499.69;5019496;28;20327;-72
2022/01/26 14:00:06;;;;;;;20.45;7.85;;;;;;;4.56;49.87;100500.63;5019031;28;20017;-71
2022/01/26 14:02:34;;;;;;;14.57;7.30;;;;;;;4.53;50.06;100494.75;5019170;28;20052;-72